sensor_id;sensor_type;location;lat;lon;timestamp;temperature;humidity
5419;DHT22;2732;52.092;11.556;2023-06-26T00:03:23;22.00;95.80
5419;DHT22;2732;52.092;11.556;2023-06-26T00:08:24;21.90;96.20
5419;DHT22;2732;52.092;11.556;2023-06-26T00:13:24;21.80;96.80
5419;DHT22;2732;52.092;11.556;2023-06-26T00:18:25;21.70;97.30
5419;DHT22;2732;52.092;11.556;2023-06-26T00:23:26;21.60;97.80
5419;DHT22;2732;52.092;11.556;2023-06-26T00:28:27;21.50;98.20
5419;DHT22;2732;52.092;11.556;2023-06-26T00:33:30;21.40;98.60
5419;DHT22;2732;52.092;11.556;2023-06-26T00:38:30;21.30;99.00
5419;DHT22;2732;52.092;11.556;2023-06-26T00:43:32;21.30;99.40
5419;DHT22;2732;52.092;11.556;2023-06-26T00:48:32;21.20;99.90
5419;DHT22;2732;52.092;11.556;2023-06-26T00:53:33;21.10;99.90
5419;DHT22;2732;52.092;11.556;2023-06-26T00:58:34;21.00;99.90
5419;DHT22;2732;52.092;11.556;2023-06-26T01:03:35;20.90;99.90
5419;DHT22;2732;52.092;11.556;2023-06-26T01:08:41;20.90;99.90
5419;DHT22;2732;52.092;11.556;2023-06-26T01:13:43;20.80;99.90
5419;DHT22;2732;52.092;11.556;2023-06-26T01:18:47;20.70;99.90
5419;DHT22;2732;52.092;11.556;2023-06-26T01:24:02;20.60;99.90
5419;DHT22;2732;52.092;11.556;2023-06-26T01:29:07;20.50;99.90
5419;DHT22;2732;52.092;11.556;2023-06-26T01:34:10;20.50;99.90
5419;DHT22;2732;52.092;11.556;2023-06-26T01:39:15;20.40;99.90
5419;DHT22;2732;52.092;11.556;2023-06-26T01:44:28;20.40;99.90
5419;DHT22;2732;52.092;11.556;2023-06-26T01:49:54;20.30;99.90
5419;DHT22;2732;52.092;11.556;2023-06-26T02:00:23;20.10;99.90
5419;DHT22;2732;52.092;11.556;2023-06-26T02:05:24;20.00;99.90
5419;DHT22;2732;52.092;11.556;2023-06-26T02:10:25;19.90;99.90
5419;DHT22;2732;52.092;11.556;2023-06-26T02:15:25;19.80;99.90
5419;DHT22;2732;52.092;11.556;2023-06-26T02:20:26;19.70;99.90
5419;DHT22;2732;52.092;11.556;2023-06-26T02:25:27;19.70;99.90
5419;DHT22;2732;52.092;11.556;2023-06-26T02:30:27;19.60;99.90
5419;DHT22;2732;52.092;11.556;2023-06-26T02:35:29;19.50;99.90
5419;DHT22;2732;52.092;11.556;2023-06-26T02:40:30;19.40;99.90
5419;DHT22;2732;52.092;11.556;2023-06-26T02:45:31;19.40;99.90
5419;DHT22;2732;52.092;11.556;2023-06-26T02:50:32;19.30;99.90
5419;DHT22;2732;52.092;11.556;2023-06-26T02:55:34;19.20;99.90
5419;DHT22;2732;52.092;11.556;2023-06-26T03:00:34;19.20;99.90
5419;DHT22;2732;52.092;11.556;2023-06-26T03:05:35;19.20;99.90
5419;DHT22;2732;52.092;11.556;2023-06-26T03:10:36;19.10;99.90
5419;DHT22;2732;52.092;11.556;2023-06-26T03:15:36;19.10;99.90
5419;DHT22;2732;52.092;11.556;2023-06-26T03:20:37;19.10;99.90
5419;DHT22;2732;52.092;11.556;2023-06-26T03:25:38;19.10;99.90
5419;DHT22;2732;52.092;11.556;2023-06-26T03:30:39;19.00;99.90
5419;DHT22;2732;52.092;11.556;2023-06-26T03:35:39;19.10;99.90
5419;DHT22;2732;52.092;11.556;2023-06-26T03:40:40;19.10;99.90
5419;DHT22;2732;52.092;11.556;2023-06-26T03:45:40;19.10;99.90
5419;DHT22;2732;52.092;11.556;2023-06-26T03:50:41;19.10;99.90
5419;DHT22;2732;52.092;11.556;2023-06-26T03:55:41;19.20;99.90
5419;DHT22;2732;52.092;11.556;2023-06-26T04:00:42;19.20;99.90
5419;DHT22;2732;52.092;11.556;2023-06-26T04:05:43;19.20;99.90
5419;DHT22;2732;52.092;11.556;2023-06-26T04:10:43;19.30;99.90
5419;DHT22;2732;52.092;11.556;2023-06-26T04:15:45;19.40;99.90
5419;DHT22;2732;52.092;11.556;2023-06-26T04:21:10;19.40;99.90
5419;DHT22;2732;52.092;11.556;2023-06-26T04:26:12;19.40;99.90
5419;DHT22;2732;52.092;11.556;2023-06-26T04:31:15;19.50;99.90
5419;DHT22;2732;52.092;11.556;2023-06-26T04:36:15;19.50;99.90
5419;DHT22;2732;52.092;11.556;2023-06-26T04:41:16;19.50;99.90
5419;DHT22;2732;52.092;11.556;2023-06-26T04:46:17;19.60;99.90
5419;DHT22;2732;52.092;11.556;2023-06-26T04:51:17;19.70;99.90
5419;DHT22;2732;52.092;11.556;2023-06-26T04:56:21;19.70;99.90
5419;DHT22;2732;52.092;11.556;2023-06-26T05:01:21;19.90;99.90
5419;DHT22;2732;52.092;11.556;2023-06-26T05:06:22;20.00;99.90
5419;DHT22;2732;52.092;11.556;2023-06-26T05:11:25;20.10;99.90
5419;DHT22;2732;52.092;11.556;2023-06-26T05:16:26;20.30;99.90
5419;DHT22;2732;52.092;11.556;2023-06-26T05:21:27;20.50;99.90
5419;DHT22;2732;52.092;11.556;2023-06-26T05:26:28;20.60;99.90
5419;DHT22;2732;52.092;11.556;2023-06-26T05:31:33;20.60;99.90
5419;DHT22;2732;52.092;11.556;2023-06-26T05:36:36;20.70;99.90
5419;DHT22;2732;52.092;11.556;2023-06-26T05:41:36;20.70;99.90
5419;DHT22;2732;52.092;11.556;2023-06-26T05:46:38;20.80;99.90
5419;DHT22;2732;52.092;11.556;2023-06-26T05:51:38;20.90;99.90
5419;DHT22;2732;52.092;11.556;2023-06-26T05:56:39;21.00;99.90
5419;DHT22;2732;52.092;11.556;2023-06-26T06:01:41;21.10;99.90
5419;DHT22;2732;52.092;11.556;2023-06-26T06:06:42;21.20;99.90
5419;DHT22;2732;52.092;11.556;2023-06-26T06:11:42;21.50;99.90
5419;DHT22;2732;52.092;11.556;2023-06-26T06:16:43;21.80;99.90
5419;DHT22;2732;52.092;11.556;2023-06-26T06:21:43;22.10;99.90
5419;DHT22;2732;52.092;11.556;2023-06-26T06:26:44;22.30;99.90
5419;DHT22;2732;52.092;11.556;2023-06-26T06:31:45;22.50;99.90
5419;DHT22;2732;52.092;11.556;2023-06-26T06:36:46;22.60;99.90
5419;DHT22;2732;52.092;11.556;2023-06-26T06:41:47;22.70;99.90
5419;DHT22;2732;52.092;11.556;2023-06-26T06:46:47;22.70;99.90
5419;DHT22;2732;52.092;11.556;2023-06-26T06:51:49;22.80;99.90
5419;DHT22;2732;52.092;11.556;2023-06-26T06:56:51;22.80;99.90
5419;DHT22;2732;52.092;11.556;2023-06-26T07:01:51;22.90;99.90
5419;DHT22;2732;52.092;11.556;2023-06-26T07:06:52;23.00;99.90
5419;DHT22;2732;52.092;11.556;2023-06-26T07:11:53;23.00;99.90
5419;DHT22;2732;52.092;11.556;2023-06-26T07:16:53;23.20;99.90
5419;DHT22;2732;52.092;11.556;2023-06-26T07:21:54;23.70;99.90
5419;DHT22;2732;52.092;11.556;2023-06-26T07:26:54;24.40;99.90
5419;DHT22;2732;52.092;11.556;2023-06-26T07:31:55;25.10;99.90
5419;DHT22;2732;52.092;11.556;2023-06-26T07:36:56;25.80;99.90
5419;DHT22;2732;52.092;11.556;2023-06-26T07:41:57;26.50;99.90
5419;DHT22;2732;52.092;11.556;2023-06-26T07:46:59;27.10;99.90
5419;DHT22;2732;52.092;11.556;2023-06-26T07:52:00;27.60;99.90
5419;DHT22;2732;52.092;11.556;2023-06-26T07:57:02;28.10;99.90
5419;DHT22;2732;52.092;11.556;2023-06-26T08:02:12;28.50;99.90
5419;DHT22;2732;52.092;11.556;2023-06-26T08:07:13;29.00;99.70
5419;DHT22;2732;52.092;11.556;2023-06-26T08:12:15;29.50;98.50
5419;DHT22;2732;52.092;11.556;2023-06-26T08:17:15;29.90;97.80
5419;DHT22;2732;52.092;11.556;2023-06-26T08:22:16;30.30;97.00
5419;DHT22;2732;52.092;11.556;2023-06-26T08:27:18;30.80;96.00
5419;DHT22;2732;52.092;11.556;2023-06-26T08:32:18;31.10;95.30
5419;DHT22;2732;52.092;11.556;2023-06-26T08:37:19;31.60;94.80
5419;DHT22;2732;52.092;11.556;2023-06-26T08:42:20;31.90;94.00
5419;DHT22;2732;52.092;11.556;2023-06-26T08:47:21;32.20;92.40
5419;DHT22;2732;52.092;11.556;2023-06-26T08:52:33;32.60;91.70
5419;DHT22;2732;52.092;11.556;2023-06-26T08:57:36;33.00;91.20
5419;DHT22;2732;52.092;11.556;2023-06-26T09:02:38;33.30;90.40
5419;DHT22;2732;52.092;11.556;2023-06-26T09:07:39;33.60;88.80
5419;DHT22;2732;52.092;11.556;2023-06-26T09:12:40;34.00;87.00
5419;DHT22;2732;52.092;11.556;2023-06-26T09:17:41;34.40;85.30
5419;DHT22;2732;52.092;11.556;2023-06-26T09:22:43;34.80;83.90
5419;DHT22;2732;52.092;11.556;2023-06-26T09:27:48;34.80;82.30
5419;DHT22;2732;52.092;11.556;2023-06-26T09:32:50;34.60;81.50
5419;DHT22;2732;52.092;11.556;2023-06-26T09:37:51;34.70;78.80
5419;DHT22;2732;52.092;11.556;2023-06-26T09:42:53;34.80;78.20
5419;DHT22;2732;52.092;11.556;2023-06-26T09:47:54;34.50;78.60
5419;DHT22;2732;52.092;11.556;2023-06-26T09:52:55;34.30;78.60
5419;DHT22;2732;52.092;11.556;2023-06-26T09:57:56;35.00;78.00
5419;DHT22;2732;52.092;11.556;2023-06-26T10:03:00;35.80;76.50
5419;DHT22;2732;52.092;11.556;2023-06-26T10:08:02;36.80;75.70
5419;DHT22;2732;52.092;11.556;2023-06-26T10:13:11;36.80;72.90
5419;DHT22;2732;52.092;11.556;2023-06-26T10:18:18;36.40;73.60
5419;DHT22;2732;52.092;11.556;2023-06-26T10:23:19;37.10;72.00
5419;DHT22;2732;52.092;11.556;2023-06-26T10:28:21;37.50;70.60
5419;DHT22;2732;52.092;11.556;2023-06-26T10:33:23;37.90;68.60
5419;DHT22;2732;52.092;11.556;2023-06-26T10:38:53;38.40;67.90
5419;DHT22;2732;52.092;11.556;2023-06-26T10:49:00;38.90;64.80
5419;DHT22;2732;52.092;11.556;2023-06-26T10:54:01;38.90;63.60
5419;DHT22;2732;52.092;11.556;2023-06-26T10:59:15;39.00;62.70
5419;DHT22;2732;52.092;11.556;2023-06-26T11:04:16;39.30;61.60
5419;DHT22;2732;52.092;11.556;2023-06-26T11:09:18;39.40;59.10
5419;DHT22;2732;52.092;11.556;2023-06-26T11:14:25;39.60;59.10
5419;DHT22;2732;52.092;11.556;2023-06-26T11:19:27;39.90;58.70
5419;DHT22;2732;52.092;11.556;2023-06-26T11:24:33;40.00;57.50
5419;DHT22;2732;52.092;11.556;2023-06-26T11:29:34;40.10;56.20
5419;DHT22;2732;52.092;11.556;2023-06-26T11:34:35;40.30;55.20
5419;DHT22;2732;52.092;11.556;2023-06-26T11:39:36;40.60;54.80
5419;DHT22;2732;52.092;11.556;2023-06-26T11:44:44;40.80;53.60
5419;DHT22;2732;52.092;11.556;2023-06-26T11:49:46;40.80;53.70
5419;DHT22;2732;52.092;11.556;2023-06-26T11:54:47;39.80;54.10
5419;DHT22;2732;52.092;11.556;2023-06-26T11:59:51;38.70;55.00
5419;DHT22;2732;52.092;11.556;2023-06-26T12:04:52;37.70;56.40
5419;DHT22;2732;52.092;11.556;2023-06-26T12:09:54;36.90;58.00
5419;DHT22;2732;52.092;11.556;2023-06-26T12:14:55;36.10;59.80
5419;DHT22;2732;52.092;11.556;2023-06-26T12:19:56;35.60;61.20
5419;DHT22;2732;52.092;11.556;2023-06-26T12:24:57;35.60;61.40
5419;DHT22;2732;52.092;11.556;2023-06-26T12:29:58;35.20;62.90
5419;DHT22;2732;52.092;11.556;2023-06-26T12:34:58;34.60;64.00
5419;DHT22;2732;52.092;11.556;2023-06-26T12:39:59;34.30;65.50
5419;DHT22;2732;52.092;11.556;2023-06-26T12:45:12;35.00;65.10
5419;DHT22;2732;52.092;11.556;2023-06-26T12:50:14;35.70;64.50
5419;DHT22;2732;52.092;11.556;2023-06-26T12:55:15;36.00;63.10
5419;DHT22;2732;52.092;11.556;2023-06-26T13:00:16;35.40;63.60
5419;DHT22;2732;52.092;11.556;2023-06-26T13:05:17;34.90;64.20
5419;DHT22;2732;52.092;11.556;2023-06-26T13:10:18;34.30;64.10
5419;DHT22;2732;52.092;11.556;2023-06-26T13:15:18;33.60;66.10
5419;DHT22;2732;52.092;11.556;2023-06-26T13:20:19;33.00;67.70
5419;DHT22;2732;52.092;11.556;2023-06-26T13:25:20;32.40;68.20
5419;DHT22;2732;52.092;11.556;2023-06-26T13:30:21;31.80;66.80
5419;DHT22;2732;52.092;11.556;2023-06-26T13:35:22;31.50;67.50
5419;DHT22;2732;52.092;11.556;2023-06-26T13:40:23;31.20;67.80
5419;DHT22;2732;52.092;11.556;2023-06-26T13:45:25;30.70;67.60
5419;DHT22;2732;52.092;11.556;2023-06-26T13:50:25;30.30;69.30
5419;DHT22;2732;52.092;11.556;2023-06-26T13:55:26;30.10;69.40
5419;DHT22;2732;52.092;11.556;2023-06-26T14:00:27;30.80;69.10
5419;DHT22;2732;52.092;11.556;2023-06-26T14:05:28;31.20;68.00
5419;DHT22;2732;52.092;11.556;2023-06-26T14:10:28;30.90;69.30
5419;DHT22;2732;52.092;11.556;2023-06-26T14:15:32;30.40;70.70
5419;DHT22;2732;52.092;11.556;2023-06-26T14:20:33;30.30;71.50
5419;DHT22;2732;52.092;11.556;2023-06-26T14:25:36;30.80;70.10
5419;DHT22;2732;52.092;11.556;2023-06-26T14:30:36;31.10;69.50
5419;DHT22;2732;52.092;11.556;2023-06-26T14:35:37;31.20;70.40
5419;DHT22;2732;52.092;11.556;2023-06-26T14:40:38;31.20;70.60
5419;DHT22;2732;52.092;11.556;2023-06-26T14:45:38;31.00;71.30
5419;DHT22;2732;52.092;11.556;2023-06-26T14:50:39;31.20;71.30
5419;DHT22;2732;52.092;11.556;2023-06-26T14:55:40;31.20;71.40
5419;DHT22;2732;52.092;11.556;2023-06-26T15:00:41;31.10;72.00
5419;DHT22;2732;52.092;11.556;2023-06-26T15:05:41;30.80;72.60
5419;DHT22;2732;52.092;11.556;2023-06-26T15:10:42;30.50;73.10
5419;DHT22;2732;52.092;11.556;2023-06-26T15:15:42;30.70;72.30
5419;DHT22;2732;52.092;11.556;2023-06-26T15:20:43;30.70;72.40
5419;DHT22;2732;52.092;11.556;2023-06-26T15:25:44;30.60;72.10
5419;DHT22;2732;52.092;11.556;2023-06-26T15:30:45;30.30;72.70
5419;DHT22;2732;52.092;11.556;2023-06-26T15:35:46;30.10;72.50
5419;DHT22;2732;52.092;11.556;2023-06-26T15:40:47;30.30;72.20
5419;DHT22;2732;52.092;11.556;2023-06-26T15:45:48;30.70;70.60
5419;DHT22;2732;52.092;11.556;2023-06-26T15:50:48;30.90;68.60
5419;DHT22;2732;52.092;11.556;2023-06-26T15:55:49;31.00;68.70
5419;DHT22;2732;52.092;11.556;2023-06-26T16:00:50;31.00;68.90
5419;DHT22;2732;52.092;11.556;2023-06-26T16:05:52;31.00;68.50
5419;DHT22;2732;52.092;11.556;2023-06-26T16:10:53;30.90;68.50
5419;DHT22;2732;52.092;11.556;2023-06-26T16:15:54;30.90;69.10
5419;DHT22;2732;52.092;11.556;2023-06-26T16:20:55;30.80;68.40
5419;DHT22;2732;52.092;11.556;2023-06-26T16:25:55;30.80;68.80
5419;DHT22;2732;52.092;11.556;2023-06-26T16:30:56;30.80;69.10
5419;DHT22;2732;52.092;11.556;2023-06-26T16:35:56;30.70;68.50
5419;DHT22;2732;52.092;11.556;2023-06-26T16:40:57;30.60;69.00
5419;DHT22;2732;52.092;11.556;2023-06-26T16:45:57;30.60;69.00
5419;DHT22;2732;52.092;11.556;2023-06-26T16:50:58;30.50;69.40
5419;DHT22;2732;52.092;11.556;2023-06-26T16:55:59;30.40;68.40
5419;DHT22;2732;52.092;11.556;2023-06-26T17:00:59;30.30;67.50
5419;DHT22;2732;52.092;11.556;2023-06-26T17:06:00;30.00;67.30
5419;DHT22;2732;52.092;11.556;2023-06-26T17:11:00;29.70;66.80
5419;DHT22;2732;52.092;11.556;2023-06-26T17:16:01;29.30;66.70
5419;DHT22;2732;52.092;11.556;2023-06-26T17:21:01;29.00;67.30
5419;DHT22;2732;52.092;11.556;2023-06-26T17:26:03;28.80;68.10
5419;DHT22;2732;52.092;11.556;2023-06-26T17:31:04;28.50;68.50
5419;DHT22;2732;52.092;11.556;2023-06-26T17:36:05;28.30;68.50
5419;DHT22;2732;52.092;11.556;2023-06-26T17:41:05;28.10;69.30
5419;DHT22;2732;52.092;11.556;2023-06-26T17:46:06;27.80;69.70
5419;DHT22;2732;52.092;11.556;2023-06-26T17:51:07;27.50;70.10
5419;DHT22;2732;52.092;11.556;2023-06-26T17:56:07;27.10;70.40
5419;DHT22;2732;52.092;11.556;2023-06-26T18:01:08;26.80;71.00
5419;DHT22;2732;52.092;11.556;2023-06-26T18:06:08;26.50;71.90
5419;DHT22;2732;52.092;11.556;2023-06-26T18:11:09;26.20;73.60
5419;DHT22;2732;52.092;11.556;2023-06-26T18:16:09;25.90;74.50
5419;DHT22;2732;52.092;11.556;2023-06-26T18:21:12;25.60;75.10
5419;DHT22;2732;52.092;11.556;2023-06-26T18:26:13;25.40;75.40
5419;DHT22;2732;52.092;11.556;2023-06-26T18:31:14;25.20;75.60
5419;DHT22;2732;52.092;11.556;2023-06-26T18:36:14;25.10;76.10
5419;DHT22;2732;52.092;11.556;2023-06-26T18:41:15;24.90;76.00
5419;DHT22;2732;52.092;11.556;2023-06-26T18:46:16;24.70;76.40
5419;DHT22;2732;52.092;11.556;2023-06-26T18:51:16;24.60;76.60
5419;DHT22;2732;52.092;11.556;2023-06-26T18:56:17;24.40;76.80
5419;DHT22;2732;52.092;11.556;2023-06-26T19:01:17;24.20;76.80
5419;DHT22;2732;52.092;11.556;2023-06-26T19:06:55;24.00;77.40
5419;DHT22;2732;52.092;11.556;2023-06-26T19:11:56;23.80;77.90
5419;DHT22;2732;52.092;11.556;2023-06-26T19:16:56;23.60;77.80
5419;DHT22;2732;52.092;11.556;2023-06-26T19:21:57;23.30;78.10
5419;DHT22;2732;52.092;11.556;2023-06-26T19:26:57;23.00;77.60
5419;DHT22;2732;52.092;11.556;2023-06-26T19:31:58;22.80;77.60
5419;DHT22;2732;52.092;11.556;2023-06-26T19:37:00;22.70;78.30
5419;DHT22;2732;52.092;11.556;2023-06-26T19:42:01;22.50;78.60
5419;DHT22;2732;52.092;11.556;2023-06-26T19:47:02;22.40;79.20
5419;DHT22;2732;52.092;11.556;2023-06-26T19:52:03;22.20;79.80
5419;DHT22;2732;52.092;11.556;2023-06-26T19:57:04;22.10;80.30
5419;DHT22;2732;52.092;11.556;2023-06-26T20:02:06;22.00;81.00
5419;DHT22;2732;52.092;11.556;2023-06-26T20:07:06;21.90;81.50
5419;DHT22;2732;52.092;11.556;2023-06-26T20:12:08;21.80;82.20
5419;DHT22;2732;52.092;11.556;2023-06-26T20:17:09;21.70;82.90
5419;DHT22;2732;52.092;11.556;2023-06-26T20:22:10;21.60;83.60
5419;DHT22;2732;52.092;11.556;2023-06-26T20:27:11;21.50;84.30
5419;DHT22;2732;52.092;11.556;2023-06-26T20:32:12;21.40;84.90
5419;DHT22;2732;52.092;11.556;2023-06-26T20:37:13;21.30;85.40
5419;DHT22;2732;52.092;11.556;2023-06-26T20:42:16;21.20;85.70
5419;DHT22;2732;52.092;11.556;2023-06-26T20:47:18;21.10;85.70
5419;DHT22;2732;52.092;11.556;2023-06-26T20:52:19;21.00;86.10
5419;DHT22;2732;52.092;11.556;2023-06-26T20:57:21;20.90;85.90
5419;DHT22;2732;52.092;11.556;2023-06-26T21:02:21;20.80;86.10
5419;DHT22;2732;52.092;11.556;2023-06-26T21:07:22;20.70;86.20
5419;DHT22;2732;52.092;11.556;2023-06-26T21:12:22;20.60;86.30
5419;DHT22;2732;52.092;11.556;2023-06-26T21:17:23;20.50;85.90
5419;DHT22;2732;52.092;11.556;2023-06-26T21:22:24;20.40;85.70
5419;DHT22;2732;52.092;11.556;2023-06-26T21:27:24;20.40;85.80
5419;DHT22;2732;52.092;11.556;2023-06-26T21:32:25;20.20;86.10
5419;DHT22;2732;52.092;11.556;2023-06-26T21:37:26;20.20;86.80
5419;DHT22;2732;52.092;11.556;2023-06-26T21:42:26;20.10;86.70
5419;DHT22;2732;52.092;11.556;2023-06-26T21:47:27;19.90;86.60
5419;DHT22;2732;52.092;11.556;2023-06-26T21:52:27;19.90;87.00
5419;DHT22;2732;52.092;11.556;2023-06-26T21:57:28;19.80;87.60
5419;DHT22;2732;52.092;11.556;2023-06-26T22:02:29;19.70;88.00
5419;DHT22;2732;52.092;11.556;2023-06-26T22:07:30;19.60;88.60
5419;DHT22;2732;52.092;11.556;2023-06-26T22:12:32;19.50;89.20
5419;DHT22;2732;52.092;11.556;2023-06-26T22:17:47;19.40;89.50
5419;DHT22;2732;52.092;11.556;2023-06-26T22:22:49;19.30;90.00
5419;DHT22;2732;52.092;11.556;2023-06-26T22:27:51;19.20;90.10
5419;DHT22;2732;52.092;11.556;2023-06-26T22:32:53;19.20;90.30
5419;DHT22;2732;52.092;11.556;2023-06-26T22:37:54;19.10;90.50
5419;DHT22;2732;52.092;11.556;2023-06-26T22:42:55;19.00;90.60
5419;DHT22;2732;52.092;11.556;2023-06-26T22:47:56;18.90;90.80
5419;DHT22;2732;52.092;11.556;2023-06-26T22:52:56;18.80;91.10
5419;DHT22;2732;52.092;11.556;2023-06-26T22:57:57;18.80;91.40
5419;DHT22;2732;52.092;11.556;2023-06-26T23:02:58;18.60;91.50
5419;DHT22;2732;52.092;11.556;2023-06-26T23:07:58;18.50;91.90
5419;DHT22;2732;52.092;11.556;2023-06-26T23:13:02;18.40;92.20
5419;DHT22;2732;52.092;11.556;2023-06-26T23:18:03;18.40;92.60
5419;DHT22;2732;52.092;11.556;2023-06-26T23:23:03;18.30;93.00
5419;DHT22;2732;52.092;11.556;2023-06-26T23:28:04;18.20;93.30
5419;DHT22;2732;52.092;11.556;2023-06-26T23:33:05;18.10;93.70
5419;DHT22;2732;52.092;11.556;2023-06-26T23:38:06;18.00;94.00
5419;DHT22;2732;52.092;11.556;2023-06-26T23:43:07;17.90;94.30
5419;DHT22;2732;52.092;11.556;2023-06-26T23:48:07;17.80;94.60
5419;DHT22;2732;52.092;11.556;2023-06-26T23:53:08;17.70;95.00
5419;DHT22;2732;52.092;11.556;2023-06-26T23:58:09;17.70;95.40
